Altus Air Force Base
KLTS : now visible

Airfield :











YOU CAN JOIN US ON...

 
LOGIN :

Register | Disclaimer

   EN    FR    IT 

 









Legend :    VFR   Marginal VFR   IFR   Intensive IFR   Very Intensive IFR
Visi :
Ceiling :
>= 8 km
>= 3000ft
5 to 8 km
1000 to 3000 ft
1500m to 5 km
500 to 1000 ft
800 to 1500m
200 to 500 ft
< 800m
< 200 ft
Symbols :   Thunderstorms  Fog  Heavy snow  Heavy precipitations  Wind > 20 kt






- Airport Elevation : 1382 ft


KLTS - Altus Air Force Base

EXPIRED METARs :
  • 272056Z 00000KT 2SM BR OVC010 00/M01 A3015 RMK RAB2008E2009DZB2009E2019 CIG 009 RWY17L CIG 009 RWY35L CIG 009 RWY35R SLPNO P0000 $

TAF TAF KLTS
Valid from the 27 at 17:00 until the 28 at 23:00 UTC


271700Z 2717/2823 01012G22KT 8000 -RASN OVC007 650074 520207 QNH3015INS
TEMPO 2717/2720 3200 -FZRA OVC006 690002
BECMG 2722/2723 01012KT 6000 -RASN BR OVC005 650059 520055 QNH3009INS
BECMG 2806/2807 02009KT 2400 -RA BR OVC002 620023 520055 QNH2996INS TX02/2817Z TNM01/2723Z LAST NO AMDS AFT 2717 NEXT 2801
KZFW FIR / North America



MET'MAP, your aeronautical weather chart ! - Copyright ORBIFLY December 2007 - Disclaimer

ORBIFLY MET'MAP TEAM :

Programming & Development : Alexandra Zaïnal
Concept & original design : Baudouin d'Aumeries
Assistance for programming : Marc-Olivier Méhu
Technical & hardware support : Manuel Goepfert

Contact : metmap@orbifly.com




SOURCES & CREDITS :

   NOAA       Earth
Advisory